Time;durP1;ratioP1;P1;durP2;ratioP2;P2;SDS_P1;SDS_P2;PMS_P1;PMS_P2;Temp;Humidity;BMP_temperature;BMP_pressure;BME280_temperature;BME280_humidity;BME280_pressure;Samples;Min_cycle;Max_cycle;Signal;HPM_P1;HPM_P2
2022/04/28 00:01:40;;;;;;;0.80;0.50;;;9.20;99.90;;;;;;4997311;28;20191;-70
2022/04/28 00:04:05;;;;;;;1.30;0.67;;;9.20;99.90;;;;;;4994227;28;20177;-70
2022/04/28 00:06:31;;;;;;;0.80;0.50;;;9.20;99.90;;;;;;4994392;28;20538;-70
2022/04/28 00:08:56;;;;;;;0.80;0.50;;;9.10;99.90;;;;;;4993031;28;20614;-71
2022/04/28 00:11:22;;;;;;;0.80;0.50;;;9.10;99.90;;;;;;5009155;28;20204;-71
2022/04/28 00:13:47;;;;;;;0.80;0.50;;;9.10;99.90;;;;;;4994243;28;20177;-71
2022/04/28 00:16:13;;;;;;;0.80;0.50;;;9.10;99.90;;;;;;4994278;28;20173;-70
2022/04/28 00:18:38;;;;;;;0.80;0.50;;;9.10;99.90;;;;;;4994864;28;20199;-71
2022/04/28 00:21:04;;;;;;;0.80;0.50;;;9.00;99.90;;;;;;4995778;28;20231;-70
2022/04/28 00:23:29;;;;;;;0.80;0.50;;;9.00;99.90;;;;;;4995957;28;20231;-70
2022/04/28 00:25:55;;;;;;;0.80;0.50;;;9.00;99.90;;;;;;4995502;28;20173;-70
2022/04/28 00:28:20;;;;;;;0.80;0.50;;;9.00;99.90;;;;;;4995226;28;20200;-71
2022/04/28 00:30:46;;;;;;;0.80;0.50;;;8.90;99.90;;;;;;4993449;28;20211;-70
2022/04/28 00:33:12;;;;;;;0.80;0.50;;;8.90;99.90;;;;;;4993958;28;20200;-71
2022/04/28 00:35:38;;;;;;;0.80;0.50;;;8.90;99.90;;;;;;4993998;28;20443;-72
2022/04/28 00:38:04;;;;;;;0.80;0.50;;;8.80;99.90;;;;;;5010477;28;20185;-70
2022/04/28 00:40:30;;;;;;;0.80;0.50;;;8.80;99.90;;;;;;5009225;28;20454;-72
2022/04/28 00:43:18;;;;;;;0.80;0.50;;;8.80;99.90;;;;;;4996956;28;20185;-70
2022/04/28 00:45:41;;;;;;;0.80;0.70;;;8.80;99.90;;;;;;4994700;28;20184;-70
2022/04/28 00:50:53;;;;;;;0.80;0.50;;;8.70;99.90;;;;;;4998924;28;20284;-72
2022/04/28 00:53:19;;;;;;;0.80;0.50;;;8.70;99.90;;;;;;5010584;28;20444;-71
2022/04/28 00:55:45;;;;;;;0.80;0.50;;;8.70;99.90;;;;;;5004607;28;20806;-70
2022/04/28 00:58:11;;;;;;;0.77;0.50;;;8.70;99.90;;;;;;4993885;28;20197;-70
2022/04/28 01:00:40;;;;;;;0.80;0.50;;;8.60;99.90;;;;;;4993197;28;20431;-70
2022/04/28 01:03:06;;;;;;;0.80;0.50;;;8.60;99.90;;;;;;4993303;28;20220;-70
2022/04/28 01:05:32;;;;;;;0.80;0.50;;;8.60;99.90;;;;;;4993382;28;20436;-70
2022/04/28 01:07:58;;;;;;;0.80;0.50;;;8.60;99.90;;;;;;4993087;28;20192;-70
2022/04/28 01:10:23;;;;;;;1.07;0.63;;;8.50;99.90;;;;;;4993434;28;20466;-69
2022/04/28 01:12:49;;;;;;;0.80;0.50;;;8.50;99.90;;;;;;5020528;28;20412;-71
2022/04/28 01:15:15;;;;;;;0.80;0.50;;;8.50;99.90;;;;;;5009712;28;20650;-71
2022/04/28 01:17:41;;;;;;;0.80;0.50;;;8.50;99.90;;;;;;5002633;28;20442;-71
2022/04/28 01:20:07;;;;;;;0.80;0.50;;;8.50;99.90;;;;;;5000532;28;20169;-71
2022/04/28 01:22:33;;;;;;;1.80;0.70;;;8.40;99.90;;;;;;4999548;28;20766;-71
2022/04/28 01:25:08;;;;;;;0.80;0.50;;;8.40;99.90;;;;;;4994235;28;20698;-70
2022/04/28 01:27:38;;;;;;;0.80;0.50;;;8.40;99.90;;;;;;5003255;28;20200;-70
2022/04/28 01:30:11;;;;;;;0.80;0.50;;;8.40;99.90;;;;;;5003340;28;20452;-72
2022/04/28 01:32:36;;;;;;;0.80;0.50;;;8.30;99.90;;;;;;4993798;28;20424;-70
2022/04/28 01:35:02;;;;;;;0.80;0.50;;;8.30;99.90;;;;;;4992109;28;20418;-69
2022/04/28 01:37:27;;;;;;;0.80;0.50;;;8.30;99.90;;;;;;4992533;28;20272;-70
2022/04/28 01:39:55;;;;;;;0.80;0.57;;;8.30;99.90;;;;;;5015278;28;20165;-70
2022/04/28 01:42:24;;;;;;;0.70;0.50;;;8.20;99.90;;;;;;4994663;28;20165;-71
2022/04/28 01:44:50;;;;;;;0.80;0.50;;;8.20;99.90;;;;;;5010205;28;20412;-70
2022/04/28 01:47:16;;;;;;;0.80;0.50;;;8.20;99.90;;;;;;4998797;28;20436;-70
2022/04/28 01:49:42;;;;;;;1.07;0.60;;;8.20;99.90;;;;;;4991415;28;20416;-70
2022/04/28 01:54:57;;;;;;;0.80;0.50;;;8.10;99.90;;;;;;4992617;28;20214;-70
2022/04/28 01:57:24;;;;;;;0.90;0.90;;;8.10;99.90;;;;;;5003471;28;20573;-71
2022/04/28 01:59:50;;;;;;;0.73;0.50;;;8.10;99.90;;;;;;4995307;28;20412;-69
2022/04/28 02:02:16;;;;;;;0.80;0.60;;;8.00;99.90;;;;;;4998454;28;20484;-70
2022/04/28 02:04:41;;;;;;;0.80;0.50;;;8.00;99.90;;;;;;4992561;28;20407;-70
2022/04/28 02:07:07;;;;;;;0.80;0.50;;;8.00;99.90;;;;;;5008993;28;20196;-71
2022/04/28 02:09:33;;;;;;;0.80;0.60;;;8.00;99.90;;;;;;5008453;28;20196;-69
2022/04/28 02:11:58;;;;;;;0.80;0.50;;;7.90;99.90;;;;;;4994300;28;20208;-71
2022/04/28 02:14:24;;;;;;;0.80;0.50;;;7.90;99.90;;;;;;5006397;28;20208;-70
2022/04/28 02:16:50;;;;;;;0.80;0.50;;;7.90;99.90;;;;;;5007111;28;20189;-71
2022/04/28 02:19:16;;;;;;;0.80;0.50;;;7.90;99.90;;;;;;5003941;28;20177;-70
2022/04/28 02:21:41;;;;;;;0.70;0.50;;;7.90;99.90;;;;;;4994564;28;20169;-71
2022/04/28 02:24:07;;;;;;;0.80;0.50;;;7.90;99.90;;;;;;4994100;28;20439;-71
2022/04/28 02:26:33;;;;;;;0.80;0.50;;;7.80;99.90;;;;;;4996120;28;20176;-70
2022/04/28 02:28:58;;;;;;;0.80;0.50;;;7.80;99.90;;;;;;4996697;28;20173;-70
2022/04/28 02:31:24;;;;;;;0.70;0.50;;;7.80;99.90;;;;;;4996121;28;20210;-70
2022/04/28 02:33:49;;;;;;;0.70;0.50;;;7.80;99.90;;;;;;4996166;28;20252;-70
2022/04/28 02:36:15;;;;;;;0.80;0.60;;;7.80;99.90;;;;;;5003581;28;20185;-70
2022/04/28 02:38:40;;;;;;;0.80;0.60;;;7.80;99.90;;;;;;5004712;28;20200;-69
2022/04/28 02:41:06;;;;;;;0.70;0.50;;;7.70;99.90;;;;;;4997549;28;20260;-70
2022/04/28 02:43:32;;;;;;;1.00;0.60;;;7.70;99.90;;;;;;4996176;28;20177;-69
2022/04/28 02:45:58;;;;;;;0.80;0.50;;;7.70;99.90;;;;;;5003662;28;20177;-70
2022/04/28 02:48:24;;;;;;;0.80;0.60;;;7.70;99.90;;;;;;5010403;28;20487;-70
2022/04/28 02:50:50;;;;;;;0.70;0.50;;;7.70;99.90;;;;;;4998694;28;20463;-69
2022/04/28 02:53:16;;;;;;;0.80;0.50;;;7.70;99.90;;;;;;4997620;28;20482;-70
2022/04/28 02:55:41;;;;;;;0.70;0.50;;;7.70;99.90;;;;;;4997353;28;20208;-71
2022/04/28 02:58:08;;;;;;;0.80;0.50;;;7.60;99.90;;;;;;4997381;28;20682;-71
2022/04/28 03:00:35;;;;;;;0.80;0.50;;;7.60;99.90;;;;;;5008664;28;20244;-70
2022/04/28 03:03:01;;;;;;;0.80;0.50;;;7.60;99.90;;;;;;5004269;28;20415;-68
2022/04/28 03:05:27;;;;;;;0.80;0.50;;;7.60;99.90;;;;;;4996808;28;20917;-70
2022/04/28 03:10:49;;;;;;;0.80;0.50;;;7.50;99.90;;;;;;5014247;28;20227;-71
2022/04/28 03:13:19;;;;;;;0.80;0.50;;;7.50;99.90;;;;;;5011866;28;20427;-70
2022/04/28 03:15:49;;;;;;;5.90;1.10;;;7.50;99.90;;;;;;4999484;28;20411;-70
2022/04/28 03:18:16;;;;;;;0.80;0.50;;;7.50;99.90;;;;;;5013505;28;20424;-71
2022/04/28 03:20:42;;;;;;;0.80;0.50;;;7.50;99.90;;;;;;5000294;28;20420;-69
2022/04/28 03:23:11;;;;;;;0.80;0.50;;;7.50;99.90;;;;;;4995317;28;20777;-70
2022/04/28 03:25:37;;;;;;;0.70;0.50;;;7.50;99.90;;;;;;4995236;28;20404;-70
2022/04/28 03:28:03;;;;;;;0.90;0.90;;;7.40;99.90;;;;;;4995012;28;20436;-70
2022/04/28 03:30:29;;;;;;;0.70;0.50;;;7.50;99.90;;;;;;4995090;28;20571;-70
2022/04/28 03:32:54;;;;;;;0.80;0.50;;;7.40;99.90;;;;;;4994959;28;20500;-70
2022/04/28 03:35:20;;;;;;;0.70;0.50;;;7.40;99.90;;;;;;4995096;28;20161;-70
2022/04/28 03:37:48;;;;;;;0.70;0.50;;;7.40;99.90;;;;;;4997783;28;20191;-72
2022/04/28 03:40:14;;;;;;;0.80;0.57;;;7.40;99.90;;;;;;5029271;28;20177;-71
2022/04/28 03:42:40;;;;;;;0.70;0.50;;;7.40;99.90;;;;;;5011839;28;20424;-71
2022/04/28 03:45:06;;;;;;;0.80;0.60;;;7.40;99.90;;;;;;5010928;28;20180;-69
2022/04/28 03:47:33;;;;;;;0.70;0.50;;;7.30;99.90;;;;;;4995031;28;20454;-69
2022/04/28 03:49:59;;;;;;;0.70;0.50;;;7.30;99.90;;;;;;4994736;28;20476;-69
2022/04/28 03:52:24;;;;;;;0.70;0.50;;;7.30;99.90;;;;;;4995232;28;20408;-70
2022/04/28 03:54:50;;;;;;;0.80;0.50;;;7.30;99.90;;;;;;4994618;28;20554;-70
2022/04/28 03:57:15;;;;;;;0.90;0.60;;;7.30;99.90;;;;;;4994334;28;20246;-70
2022/04/28 03:59:41;;;;;;;0.80;0.50;;;7.20;99.90;;;;;;4995536;28;20244;-70
2022/04/28 04:02:06;;;;;;;0.80;0.80;;;7.30;99.90;;;;;;4995168;28;20231;-70
2022/04/28 04:04:32;;;;;;;0.70;0.50;;;7.20;99.90;;;;;;4994571;28;20173;-70
2022/04/28 04:06:58;;;;;;;0.70;0.50;;;7.20;99.90;;;;;;4994322;28;20200;-70
2022/04/28 04:09:24;;;;;;;0.70;0.50;;;7.20;99.90;;;;;;4994595;28;20410;-69
2022/04/28 04:11:50;;;;;;;0.77;0.53;;;7.20;99.90;;;;;;4994325;28;20207;-70
2022/04/28 04:14:15;;;;;;;0.80;0.50;;;7.20;99.90;;;;;;4994412;28;20902;-69
2022/04/28 04:16:41;;;;;;;0.70;0.50;;;7.20;99.90;;;;;;4995806;28;20192;-70
2022/04/28 04:19:06;;;;;;;0.70;0.50;;;7.20;99.90;;;;;;4994238;28;20180;-70
2022/04/28 04:21:32;;;;;;;0.70;0.50;;;7.20;99.90;;;;;;4994239;28;20172;-69
2022/04/28 04:23:58;;;;;;;0.70;0.50;;;7.20;99.90;;;;;;5009198;28;20180;-70
2022/04/28 04:26:24;;;;;;;0.70;0.50;;;7.20;99.90;;;;;;4993870;28;20207;-70
2022/04/28 04:28:49;;;;;;;0.77;0.50;;;7.20;99.90;;;;;;4993606;28;20818;-69
2022/04/28 04:33:59;;;;;;;1.07;0.90;;;7.20;99.90;;;;;;4994150;28;20546;-70
2022/04/28 04:36:25;;;;;;;0.70;0.50;;;7.20;99.90;;;;;;4993975;28;20405;-70
2022/04/28 04:38:50;;;;;;;0.70;0.50;;;7.20;99.90;;;;;;4993648;28;20204;-70
2022/04/28 04:41:16;;;;;;;0.70;0.50;;;7.20;99.90;;;;;;4994092;28;20173;-71
2022/04/28 04:43:41;;;;;;;0.70;0.50;;;7.20;99.90;;;;;;5008746;28;20196;-70
2022/04/28 04:46:07;;;;;;;0.90;0.50;;;7.30;99.90;;;;;;4992723;28;20184;-70
2022/04/28 04:48:33;;;;;;;0.70;0.50;;;7.30;99.90;;;;;;4994499;28;20193;-71
2022/04/28 04:50:59;;;;;;;0.70;0.50;;;7.30;99.90;;;;;;4992932;28;20196;-70
2022/04/28 04:53:25;;;;;;;0.70;0.50;;;7.40;99.90;;;;;;4993557;28;20407;-70
2022/04/28 04:55:50;;;;;;;0.70;0.50;;;7.40;99.90;;;;;;4993658;28;20454;-69
2022/04/28 04:58:16;;;;;;;0.70;0.50;;;7.50;99.90;;;;;;4993227;28;20189;-70
2022/04/28 05:00:42;;;;;;;0.70;0.50;;;7.50;99.90;;;;;;4993892;28;20173;-70
2022/04/28 05:03:07;;;;;;;0.70;0.50;;;7.60;99.90;;;;;;4992205;28;20264;-70
2022/04/28 05:05:33;;;;;;;0.70;0.50;;;7.70;99.90;;;;;;4992051;28;20286;-71
2022/04/28 05:07:58;;;;;;;0.70;0.50;;;7.70;99.90;;;;;;5008169;28;20199;-70
2022/04/28 05:10:24;;;;;;;0.77;0.60;;;7.80;99.90;;;;;;4993409;28;20204;-70
2022/04/28 05:12:50;;;;;;;0.70;0.50;;;7.90;99.90;;;;;;4993262;28;20176;-70
2022/04/28 05:15:15;;;;;;;0.80;0.60;;;7.90;99.90;;;;;;4993182;28;20406;-70
2022/04/28 05:17:41;;;;;;;0.70;0.50;;;8.00;99.90;;;;;;4992866;28;20189;-70
2022/04/28 05:20:07;;;;;;;0.80;0.50;;;8.10;99.90;;;;;;5000817;28;20215;-72
2022/04/28 05:22:33;;;;;;;0.80;0.60;;;8.20;99.90;;;;;;4999292;28;20176;-71
2022/04/28 05:24:59;;;;;;;0.80;0.50;;;8.30;99.90;;;;;;4992912;28;20412;-70
2022/04/28 05:27:25;;;;;;;0.70;0.50;;;8.30;99.90;;;;;;4992563;28;20419;-70
2022/04/28 05:29:51;;;;;;;1.97;0.70;;;8.50;99.90;;;;;;5005121;28;20566;-72
2022/04/28 05:32:16;;;;;;;0.80;0.50;;;8.60;99.90;;;;;;5008009;28;20179;-71
2022/04/28 05:34:42;;;;;;;0.70;0.50;;;8.80;99.90;;;;;;5007817;28;20444;-70
2022/04/28 05:37:09;;;;;;;0.70;0.50;;;9.10;99.90;;;;;;4998201;28;20558;-70
2022/04/28 05:39:35;;;;;;;0.77;0.50;;;9.30;99.90;;;;;;4992762;28;20172;-69
2022/04/28 05:42:01;;;;;;;0.80;0.50;;;9.60;99.90;;;;;;4997096;28;20770;-70
2022/04/28 05:47:11;;;;;;;0.90;0.60;;;10.30;99.90;;;;;;4992842;28;20442;-69
2022/04/28 05:49:38;;;;;;;0.90;0.80;;;10.80;99.90;;;;;;4991339;28;20510;-70
2022/04/28 05:52:04;;;;;;;0.97;0.87;;;11.10;99.90;;;;;;4992644;28;20207;-70
2022/04/28 05:54:29;;;;;;;0.80;0.60;;;11.60;99.90;;;;;;4994718;28;20423;-72
2022/04/28 05:56:55;;;;;;;1.20;0.80;;;12.10;99.90;;;;;;4998689;28;20482;-71
2022/04/28 05:59:20;;;;;;;1.93;0.77;;;12.60;99.90;;;;;;4993072;28;20177;-71
2022/04/28 06:01:46;;;;;;;1.13;0.90;;;13.20;99.90;;;;;;4994266;28;20173;-70
2022/04/28 06:04:12;;;;;;;0.80;0.67;;;13.80;99.90;;;;;;4998548;28;20184;-72
2022/04/28 06:06:38;;;;;;;1.00;0.83;;;14.40;99.90;;;;;;4991408;28;20169;-70
2022/04/28 06:09:03;;;;;;;1.83;1.50;;;15.00;99.90;;;;;;4996576;28;20420;-70
2022/04/28 06:11:29;;;;;;;0.90;0.80;;;15.60;99.90;;;;;;4993745;28;20196;-72
2022/04/28 06:13:55;;;;;;;0.90;0.70;;;16.20;99.90;;;;;;4993886;28;20165;-71
2022/04/28 06:16:20;;;;;;;0.80;0.50;;;16.80;99.90;;;;;;4992408;28;20581;-71
2022/04/28 06:18:46;;;;;;;0.97;0.87;;;17.40;99.90;;;;;;4999718;28;20181;-73
2022/04/28 06:21:11;;;;;;;0.90;0.60;;;18.00;99.90;;;;;;5007850;28;20196;-72
2022/04/28 06:23:37;;;;;;;0.80;0.60;;;18.60;99.90;;;;;;5008143;28;20169;-71
2022/04/28 06:26:02;;;;;;;1.00;0.70;;;19.20;99.90;;;;;;5007179;28;20594;-73
2022/04/28 06:28:28;;;;;;;1.00;0.60;;;19.90;99.90;;;;;;5006206;28;20197;-71
2022/04/28 06:30:54;;;;;;;1.07;0.60;;;20.50;99.90;;;;;;5004780;28;20568;-72
2022/04/28 06:33:20;;;;;;;2.60;0.60;;;21.10;99.90;;;;;;5003925;28;20416;-72
2022/04/28 06:35:46;;;;;;;0.80;0.70;;;21.80;99.90;;;;;;4993307;28;20416;-72
2022/04/28 06:38:12;;;;;;;1.10;0.60;;;22.50;99.90;;;;;;4990838;28;20431;-71
2022/04/28 06:40:38;;;;;;;1.00;0.73;;;23.10;99.90;;;;;;4992211;28;20248;-72
2022/04/28 06:43:03;;;;;;;0.83;0.60;;;23.80;99.90;;;;;;4992184;28;20180;-71
2022/04/28 06:45:29;;;;;;;1.37;1.00;;;24.40;99.90;;;;;;4992100;28;20181;-71
2022/04/28 06:47:54;;;;;;;1.00;0.80;;;25.10;99.90;;;;;;4991855;28;20645;-71
2022/04/28 06:50:20;;;;;;;1.60;1.10;;;25.70;99.90;;;;;;4992111;28;20220;-71
2022/04/28 06:52:46;;;;;;;1.87;1.27;;;26.40;97.60;;;;;;4992118;28;20196;-71
2022/04/28 06:55:11;;;;;;;1.07;0.80;;;27.10;94.40;;;;;;5004232;28;20208;-72
2022/04/28 06:57:38;;;;;;;1.20;0.80;;;27.70;91.10;;;;;;5004536;28;20192;-71
2022/04/28 07:00:06;;;;;;;1.10;1.00;;;28.40;86.70;;;;;;4992228;28;20196;-72
2022/04/28 07:02:32;;;;;;;0.90;0.70;;;29.10;82.00;;;;;;5002028;28;20423;-70
2022/04/28 07:04:58;;;;;;;1.60;1.00;;;29.80;75.60;;;;;;5011289;28;20404;-69
2022/04/28 07:07:23;;;;;;;0.90;0.60;;;30.40;70.90;;;;;;5010127;28;20213;-68
2022/04/28 07:09:49;;;;;;;0.90;0.70;;;31.10;66.40;;;;;;5010015;28;20404;-71
2022/04/28 07:12:15;;;;;;;0.90;0.70;;;31.70;62.20;;;;;;5005884;28;20212;-70
2022/04/28 07:14:42;;;;;;;1.10;0.80;;;32.40;59.20;;;;;;4995482;28;20177;-70
2022/04/28 07:17:07;;;;;;;1.57;0.97;;;32.90;57.20;;;;;;4995417;28;20427;-70
2022/04/28 07:19:33;;;;;;;1.00;0.87;;;33.60;55.40;;;;;;4995250;28;20408;-70
2022/04/28 07:22:02;;;;;;;1.00;0.80;;;34.20;53.60;;;;;;4995428;28;20177;-71
2022/04/28 07:24:29;;;;;;;1.37;1.13;;;34.80;52.50;;;;;;4995305;28;20227;-70
2022/04/28 07:26:54;;;;;;;1.13;1.03;;;35.50;49.80;;;;;;4996729;28;20796;-71
2022/04/28 07:29:20;;;;;;;1.00;0.80;;;36.10;48.00;;;;;;4996254;28;20407;-71
2022/04/28 07:31:45;;;;;;;1.70;1.20;;;36.60;46.50;;;;;;4996724;28;20265;-71
2022/04/28 07:34:11;;;;;;;1.00;0.90;;;37.20;45.20;;;;;;4996671;28;20285;-71
2022/04/28 07:36:36;;;;;;;0.90;0.70;;;37.70;43.80;;;;;;4995789;28;20261;-71
2022/04/28 07:39:02;;;;;;;1.30;1.20;;;38.30;42.60;;;;;;4994848;28;20235;-71
2022/04/28 07:41:28;;;;;;;1.40;1.00;;;38.80;41.10;;;;;;4994990;28;20169;-71
2022/04/28 07:43:54;;;;;;;1.27;1.17;;;39.30;40.20;;;;;;5009015;28;20185;-72
2022/04/28 07:46:20;;;;;;;1.30;1.20;;;39.80;38.90;;;;;;5004988;28;20405;-71
2022/04/28 07:48:45;;;;;;;1.10;1.00;;;40.30;37.90;;;;;;4996122;28;20654;-71
2022/04/28 07:51:11;;;;;;;1.10;0.97;;;40.80;37.00;;;;;;4996239;28;20197;-71
2022/04/28 07:53:37;;;;;;;1.20;1.10;;;41.20;36.10;;;;;;4995259;28;20255;-71
2022/04/28 07:56:15;;;;;;;1.30;1.10;;;41.70;34.90;;;;;;4994785;28;20199;-72
2022/04/28 07:58:44;;;;;;;1.30;1.20;;;42.00;34.40;;;;;;4994468;28;20466;-72
2022/04/28 08:01:11;;;;;;;0.93;0.83;;;42.30;33.60;;;;;;4994628;28;20416;-71
2022/04/28 08:03:37;;;;;;;1.00;0.90;;;42.90;33.30;;;;;;4994924;28;20415;-71
2022/04/28 08:06:03;;;;;;;1.20;1.10;;;43.30;32.80;;;;;;4994622;28;20408;-71
2022/04/28 08:08:29;;;;;;;1.20;1.10;;;43.80;32.10;;;;;;4994118;28;20922;-71
2022/04/28 08:10:54;;;;;;;1.27;1.07;;;44.20;31.60;;;;;;4994388;28;20223;-72
2022/04/28 08:13:20;;;;;;;1.30;1.20;;;44.70;31.00;;;;;;4994396;28;20168;-72
2022/04/28 08:15:45;;;;;;;1.10;1.00;;;45.10;30.20;;;;;;4994430;28;20635;-71
2022/04/28 08:18:11;;;;;;;1.80;1.70;;;45.60;30.00;;;;;;4994006;28;20243;-72
2022/04/28 08:20:39;;;;;;;1.10;1.00;;;46.00;29.80;;;;;;4994299;28;20168;-72
2022/04/28 08:23:04;;;;;;;1.50;1.40;;;46.50;29.30;;;;;;4994038;28;20256;-72
2022/04/28 08:25:30;;;;;;;1.20;1.10;;;46.90;29.00;;;;;;4994149;28;20463;-72
2022/04/28 08:27:56;;;;;;;1.37;1.27;;;47.20;28.50;;;;;;4993935;28;20207;-72
2022/04/28 08:30:21;;;;;;;1.30;1.20;;;47.50;28.30;;;;;;4994100;28;20205;-72
2022/04/28 08:32:47;;;;;;;1.77;1.67;;;47.90;28.00;;;;;;5009346;28;20524;-72
2022/04/28 08:35:12;;;;;;;1.40;1.30;;;48.20;27.70;;;;;;4993989;28;20228;-72
2022/04/28 08:37:39;;;;;;;1.47;1.37;;;48.50;27.10;;;;;;4993646;28;20192;-72
2022/04/28 08:40:06;;;;;;;1.50;1.40;;;48.70;26.60;;;;;;4993873;28;20216;-72
2022/04/28 08:42:36;;;;;;;1.30;1.20;;;48.90;26.30;;;;;;4993846;28;20383;-71
2022/04/28 08:45:01;;;;;;;1.20;1.10;;;49.20;26.20;;;;;;4993902;28;20383;-71
2022/04/28 08:47:27;;;;;;;1.77;1.67;;;49.50;26.00;;;;;;4993593;28;20405;-71
2022/04/28 08:49:53;;;;;;;1.20;1.10;;;49.70;25.90;;;;;;4993669;28;20181;-71
2022/04/28 08:52:18;;;;;;;1.20;1.10;;;49.90;25.80;;;;;;4993622;28;20216;-71
2022/04/28 08:54:45;;;;;;;1.40;1.30;;;50.10;25.60;;;;;;4993603;28;20185;-71
2022/04/28 08:57:13;;;;;;;1.40;1.30;;;50.40;25.60;;;;;;4993525;28;20243;-71
2022/04/28 08:59:39;;;;;;;1.33;1.23;;;50.50;25.40;;;;;;4993358;28;20912;-72
2022/04/28 09:02:05;;;;;;;1.20;1.10;;;50.80;25.30;;;;;;4993586;28;20493;-71
2022/04/28 09:04:31;;;;;;;1.43;1.33;;;51.00;25.20;;;;;;4993908;28;20491;-72
2022/04/28 09:06:57;;;;;;;1.53;1.43;;;51.30;25.20;;;;;;4993323;28;20865;-72
2022/04/28 09:09:25;;;;;;;1.30;1.10;;;51.40;24.80;;;;;;4993357;28;20177;-72
2022/04/28 09:11:56;;;;;;;2.30;2.13;;;51.60;24.50;;;;;;5008557;28;20434;-72
2022/04/28 09:14:23;;;;;;;1.30;1.20;;;51.80;24.40;;;;;;4993307;28;20437;-72
2022/04/28 09:16:57;;;;;;;1.30;1.20;;;52.10;24.30;;;;;;4993195;28;20430;-72
2022/04/28 09:19:24;;;;;;;2.23;1.67;;;52.20;24.10;;;;;;4993078;28;21017;-71
2022/04/28 09:21:54;;;;;;;1.37;1.27;;;52.50;24.10;;;;;;4993164;28;20818;-71
2022/04/28 09:24:21;;;;;;;1.50;1.40;;;52.60;23.80;;;;;;4993141;28;20427;-72
2022/04/28 09:26:48;;;;;;;1.40;1.30;;;52.80;23.70;;;;;;4993026;28;20838;-72
2022/04/28 09:29:15;;;;;;;1.50;1.40;;;53.00;23.60;;;;;;4992849;28;20941;-72
2022/04/28 09:31:44;;;;;;;1.33;1.23;;;53.20;23.50;;;;;;4993044;28;20448;-72
2022/04/28 09:34:15;;;;;;;1.40;1.30;;;53.40;23.30;;;;;;4992966;28;20411;-72
2022/04/28 09:36:43;;;;;;;1.60;1.50;;;53.70;23.10;;;;;;4992225;28;20429;-72
2022/04/28 09:39:13;;;;;;;1.50;1.40;;;53.90;23.00;;;;;;4992673;28;20826;-72
2022/04/28 09:44:24;;;;;;;1.50;1.40;;;54.20;22.60;;;;;;4993091;28;20385;-71
2022/04/28 09:46:50;;;;;;;1.50;1.40;;;54.30;22.30;;;;;;4992979;28;20768;-71
2022/04/28 09:49:22;;;;;;;3.57;1.70;;;54.40;22.30;;;;;;4992761;28;20415;-72
2022/04/28 09:51:48;;;;;;;1.63;1.53;;;54.60;22.40;;;;;;4992702;28;20425;-70
2022/04/28 09:54:15;;;;;;;1.77;1.67;;;54.70;22.10;;;;;;4992694;28;20399;-71
2022/04/28 09:56:42;;;;;;;1.73;1.63;;;54.90;22.00;;;;;;4993227;28;20180;-71
2022/04/28 09:59:11;;;;;;;1.50;1.40;;;55.00;21.80;;;;;;4992545;28;20882;-71
2022/04/28 10:01:37;;;;;;;1.50;1.40;;;55.20;21.90;;;;;;4992368;28;20482;-71
2022/04/28 10:04:04;;;;;;;1.80;1.70;;;55.30;21.90;;;;;;4992564;28;20469;-71
2022/04/28 10:06:32;;;;;;;1.90;1.80;;;55.50;21.80;;;;;;4992929;28;20400;-72
2022/04/28 10:08:59;;;;;;;1.73;1.63;;;55.50;21.40;;;;;;4991869;28;20404;-72
2022/04/28 10:11:26;;;;;;;1.93;1.83;;;55.60;21.50;;;;;;4991569;28;20941;-72
2022/04/28 10:13:52;;;;;;;1.70;1.60;;;55.70;21.50;;;;;;4992579;28;20769;-72
2022/04/28 10:16:21;;;;;;;1.70;1.60;;;55.90;21.50;;;;;;4992129;28;20379;-70
2022/04/28 10:19:11;;;;;;;1.63;1.53;;;56.00;21.50;;;;;;4991812;28;20775;-70
2022/04/28 10:21:44;;;;;;;1.67;1.57;;;56.10;21.50;;;;;;5006759;28;20459;-72
2022/04/28 10:33:04;;;;;;;1.90;1.80;;;56.90;21.40;;;;;;4992847;28;20534;-72
2022/04/28 10:35:48;;;;;;;1.60;1.50;;;57.10;21.30;;;;;;5003422;28;20470;-72
2022/04/28 10:38:21;;;;;;;1.73;1.63;;;57.20;21.20;;;;;;4992643;28;20401;-72
2022/04/28 10:41:00;;;;;;;2.13;2.03;;;57.50;21.20;;;;;;4993192;28;20448;-72
2022/04/28 10:43:37;;;;;;;2.03;1.93;;;57.70;21.20;;;;;;4993830;28;20454;-72
2022/04/28 10:46:09;;;;;;;2.23;2.13;;;57.90;21.10;;;;;;4992221;28;20416;-72
2022/04/28 10:48:46;;;;;;;2.00;1.90;;;58.10;21.00;;;;;;4996576;28;20454;-72
2022/04/28 10:51:11;;;;;;;2.20;2.10;;;58.30;20.90;;;;;;4997195;28;20464;-72
2022/04/28 10:53:58;;;;;;;2.40;2.20;;;58.50;20.80;;;;;;4995889;28;20459;-72
2022/04/28 10:56:25;;;;;;;1.90;1.80;;;58.70;20.80;;;;;;4997205;28;20584;-72
2022/04/28 10:58:52;;;;;;;2.03;1.93;;;58.90;20.70;;;;;;4996684;28;20461;-72
2022/04/28 11:01:32;;;;;;;1.90;1.80;;;59.30;20.80;;;;;;4997095;28;20855;-72
2022/04/28 11:04:06;;;;;;;1.97;1.87;;;59.40;20.70;;;;;;4996801;28;20419;-72
2022/04/28 11:06:37;;;;;;;2.00;1.90;;;59.80;20.60;;;;;;4996731;28;20420;-72
2022/04/28 11:09:05;;;;;;;2.20;2.10;;;60.00;20.60;;;;;;4996673;28;20415;-72
2022/04/28 11:11:42;;;;;;;2.40;2.30;;;60.10;20.40;;;;;;4994813;28;20992;-72
2022/04/28 11:14:08;;;;;;;2.20;2.10;;;60.20;20.20;;;;;;5010603;28;20912;-72
2022/04/28 11:16:34;;;;;;;2.10;2.00;;;60.30;20.00;;;;;;4995144;28;20494;-72
2022/04/28 11:19:02;;;;;;;2.20;2.10;;;60.50;20.10;;;;;;4995809;28;20389;-72
2022/04/28 11:21:28;;;;;;;2.73;2.63;;;60.60;19.90;;;;;;4996165;28;20451;-72
2022/04/28 11:23:55;;;;;;;2.20;2.10;;;60.80;19.90;;;;;;4996290;28;20847;-72
2022/04/28 11:26:25;;;;;;;2.20;2.10;;;60.90;19.80;;;;;;4996417;28;20929;-72
2022/04/28 11:28:51;;;;;;;2.40;2.30;;;61.10;19.90;;;;;;4995682;28;20419;-72
2022/04/28 11:31:18;;;;;;;2.10;2.00;;;61.30;19.80;;;;;;4995539;28;20442;-72
2022/04/28 11:33:48;;;;;;;2.60;2.50;;;61.30;19.80;;;;;;4995494;28;20412;-72
2022/04/28 11:36:26;;;;;;;2.77;2.67;;;61.50;20.30;;;;;;4994386;28;20394;-72
2022/04/28 11:39:01;;;;;;;2.83;2.73;;;61.80;19.90;;;;;;4994967;28;20427;-72
2022/04/28 11:41:33;;;;;;;2.80;2.70;;;61.80;19.70;;;;;;4995214;28;20566;-72
2022/04/28 11:44:05;;;;;;;2.53;2.43;;;62.00;19.70;;;;;;4995385;28;21012;-72
2022/04/28 11:46:32;;;;;;;2.67;2.57;;;62.20;19.70;;;;;;5010318;28;20936;-69
2022/04/28 11:48:57;;;;;;;2.77;2.60;;;62.30;19.70;;;;;;4994983;28;20422;-69
2022/04/28 11:51:26;;;;;;;2.70;2.60;;;62.50;19.60;;;;;;4994664;28;20415;-69
2022/04/28 11:53:53;;;;;;;2.80;2.70;;;62.50;19.50;;;;;;4994145;28;20184;-69
2022/04/28 11:56:25;;;;;;;2.53;2.43;;;62.60;19.50;;;;;;5010290;28;20490;-69
2022/04/28 11:58:53;;;;;;;3.30;3.20;;;62.70;19.50;;;;;;4992866;28;20436;-69
2022/04/28 12:01:20;;;;;;;2.80;2.70;;;62.80;19.40;;;;;;4995046;28;20546;-69
2022/04/28 12:03:51;;;;;;;2.80;2.70;;;62.90;19.30;;;;;;4995203;28;20420;-69
2022/04/28 12:06:18;;;;;;;3.30;3.20;;;63.10;19.30;;;;;;4995037;28;20404;-69
2022/04/28 12:08:49;;;;;;;3.20;3.10;;;63.10;19.20;;;;;;4994707;28;20431;-69
2022/04/28 12:19:28;;;;;;;2.90;2.80;;;63.20;18.90;;;;;;4995208;28;20856;-69
2022/04/28 12:22:01;;;;;;;3.43;3.13;;;63.30;19.00;;;;;;4995245;28;20540;-69
2022/04/28 12:24:33;;;;;;;2.90;2.80;;;63.20;18.90;;;;;;4995270;28;20498;-70
2022/04/28 12:27:05;;;;;;;3.33;3.23;;;63.20;18.90;;;;;;4994964;28;20422;-70
2022/04/28 12:29:31;;;;;;;3.20;3.10;;;63.10;18.80;;;;;;4995085;28;20453;-70
2022/04/28 12:31:57;;;;;;;3.00;2.90;;;63.10;18.90;;;;;;4995019;28;20407;-70
2022/04/28 12:34:24;;;;;;;3.10;3.00;;;62.80;18.80;;;;;;4994972;28;20427;-71
2022/04/28 12:36:58;;;;;;;2.90;2.80;;;62.70;18.70;;;;;;4995770;28;20262;-71
2022/04/28 12:39:26;;;;;;;3.17;3.07;;;62.40;18.80;;;;;;4995387;28;20443;-71
2022/04/28 12:41:52;;;;;;;2.50;2.40;;;62.00;18.80;;;;;;4995917;28;21131;-71
2022/04/28 12:44:18;;;;;;;3.00;2.90;;;61.60;18.70;;;;;;5011112;28;20399;-71
2022/04/28 12:46:47;;;;;;;2.80;2.70;;;61.20;18.70;;;;;;4994422;28;20819;-70
2022/04/28 12:49:16;;;;;;;2.80;2.60;;;60.70;18.70;;;;;;4995266;28;20414;-70
2022/04/28 12:51:52;;;;;;;2.57;2.47;;;60.20;18.80;;;;;;4995537;28;20414;-70
2022/04/28 12:54:19;;;;;;;2.70;2.60;;;59.60;18.80;;;;;;4994931;28;20992;-70
2022/04/28 12:56:46;;;;;;;4.43;4.20;;;59.00;18.80;;;;;;4995046;28;20913;-72
2022/04/28 12:59:14;;;;;;;2.00;1.90;;;58.40;18.80;;;;;;4995099;28;20416;-72
2022/04/28 13:01:41;;;;;;;2.00;1.90;;;58.10;18.90;;;;;;4995080;28;20427;-71
2022/04/28 13:04:21;;;;;;;2.30;2.20;;;57.50;18.90;;;;;;4995535;28;20408;-71
2022/04/28 13:06:47;;;;;;;2.23;2.13;;;57.10;18.90;;;;;;4994048;28;20404;-71
2022/04/28 13:09:15;;;;;;;1.87;1.77;;;56.70;18.90;;;;;;4995011;28;20840;-72
2022/04/28 13:11:45;;;;;;;2.10;2.00;;;56.40;19.00;;;;;;4993980;28;20418;-71
2022/04/28 13:14:13;;;;;;;1.80;1.70;;;56.10;19.00;;;;;;4994568;28;20404;-71
2022/04/28 13:16:40;;;;;;;1.70;1.60;;;55.70;19.10;;;;;;4993955;28;20462;-71
2022/04/28 13:19:06;;;;;;;2.93;2.10;;;55.40;19.20;;;;;;4995223;28;20466;-71
2022/04/28 13:21:32;;;;;;;1.80;1.70;;;55.10;19.20;;;;;;4993789;28;20794;-71
2022/04/28 13:23:59;;;;;;;1.60;1.50;;;54.80;19.20;;;;;;4995153;28;20462;-71